createdAt,value
2023-05-08T00:01:23.804Z,2.76
2023-05-08T00:04:27.373Z,2.81
2023-05-08T00:07:32.286Z,2.85
2023-05-08T00:10:36.259Z,2.81
2023-05-08T00:13:41.436Z,2.92
2023-05-08T00:16:45.098Z,3.01
2023-05-08T00:19:49.231Z,3.04
2023-05-08T00:22:54.179Z,2.91
2023-05-08T00:25:57.677Z,2.91
2023-05-08T00:29:01.189Z,2.91
2023-05-08T00:32:04.870Z,2.94
2023-05-08T00:35:08.847Z,2.99
2023-05-08T00:38:13.776Z,3.01
2023-05-08T00:41:17.312Z,2.96
2023-05-08T00:44:20.727Z,2.87
2023-05-08T00:47:24.503Z,2.89
2023-05-08T00:50:28.090Z,2.81
2023-05-08T00:53:37.228Z,2.89
2023-05-08T00:56:41.427Z,2.67
2023-05-08T00:59:47.251Z,2.91
2023-05-08T01:02:51.126Z,2.69
2023-05-08T01:05:55.855Z,2.60
2023-05-08T01:09:00.962Z,2.72
2023-05-08T01:12:14.141Z,2.69
2023-05-08T01:15:22.704Z,2.70
2023-05-08T01:18:32.976Z,2.55
2023-05-08T01:21:44.376Z,2.66
2023-05-08T01:25:17.491Z,2.54
2023-05-08T01:28:42.104Z,2.57
2023-05-08T01:32:03.640Z,2.42
2023-05-08T01:35:17.821Z,2.43
2023-05-08T01:38:32.013Z,2.45
2023-05-08T01:41:38.262Z,2.41
2023-05-08T01:44:47.124Z,2.48
2023-05-08T01:48:01.869Z,2.53
2023-05-08T01:51:09.934Z,2.37
2023-05-08T01:54:17.809Z,2.43
2023-05-08T01:57:23.900Z,2.45
2023-05-08T02:00:28.642Z,2.38
2023-05-08T02:03:36.299Z,2.37
2023-05-08T02:06:42.062Z,2.46
2023-05-08T02:09:46.123Z,2.45
2023-05-08T02:12:52.292Z,2.44
2023-05-08T02:15:57.569Z,2.34
2023-05-08T02:19:04.331Z,2.34
2023-05-08T02:22:11.939Z,2.34
2023-05-08T02:25:17.527Z,2.34
2023-05-08T02:28:21.946Z,2.26
2023-05-08T02:31:26.960Z,2.35
2023-05-08T02:34:34.530Z,2.27
2023-05-08T02:37:39.757Z,2.08
2023-05-08T02:40:47.390Z,2.13
2023-05-08T02:43:53.027Z,2.29
2023-05-08T02:47:00.256Z,2.29
2023-05-08T02:50:11.593Z,2.20
2023-05-08T02:53:26.872Z,2.11
2023-05-08T02:56:37.783Z,2.03
2023-05-08T02:59:48.446Z,1.94
2023-05-08T03:02:57.190Z,2.03
2023-05-08T03:06:05.350Z,2.16
2023-05-08T03:09:19.674Z,2.02
2023-05-08T03:12:28.264Z,1.97
2023-05-08T03:15:36.964Z,2.02
2023-05-08T03:18:49.263Z,2.01
2023-05-08T03:21:57.667Z,2.08
2023-05-08T03:25:05.322Z,2.04
2023-05-08T03:28:12.274Z,2.10
2023-05-08T03:31:19.476Z,2.11
2023-05-08T03:34:25.197Z,2.02
2023-05-08T03:37:31.218Z,2.02
2023-05-08T03:40:38.978Z,2.16
2023-05-08T03:43:43.422Z,2.22
2023-05-08T03:46:49.182Z,2.24
2023-05-08T03:49:53.180Z,2.20
2023-05-08T03:52:59.927Z,2.33
2023-05-08T03:56:04.141Z,2.41
2023-05-08T03:59:18.771Z,2.49
2023-05-08T04:02:30.516Z,2.55
2023-05-08T04:05:40.123Z,2.54
2023-05-08T04:08:53.681Z,2.87
2023-05-08T04:12:04.749Z,2.79
2023-05-08T04:15:15.719Z,2.90
2023-05-08T04:18:25.388Z,2.97
2023-05-08T04:21:31.798Z,3.09
2023-05-08T04:24:43.269Z,2.95
2023-05-08T04:27:47.614Z,3.22
2023-05-08T04:30:52.530Z,3.20
2023-05-08T04:33:57.120Z,3.21
2023-05-08T04:37:01.241Z,3.45
2023-05-08T04:40:08.905Z,3.62
2023-05-08T04:43:12.625Z,3.50
2023-05-08T04:46:16.417Z,3.60
2023-05-08T04:49:20.185Z,3.77
2023-05-08T04:52:23.932Z,3.70
2023-05-08T04:55:28.884Z,4.07
2023-05-08T04:58:32.487Z,4.17
2023-05-08T05:01:36.524Z,4.26
2023-05-08T05:04:40.070Z,4.30
2023-05-08T05:07:43.862Z,4.13
2023-05-08T05:10:49.937Z,4.29
2023-05-08T05:13:53.672Z,4.19
2023-05-08T05:16:57.159Z,4.58
2023-05-08T05:20:00.805Z,4.75
2023-05-08T05:23:05.156Z,4.64
2023-05-08T05:26:10.290Z,4.87
2023-05-08T05:29:13.966Z,4.94
2023-05-08T05:32:17.975Z,5.21
2023-05-08T05:35:23.049Z,4.99
2023-05-08T05:38:28.725Z,4.80
2023-05-08T05:41:34.349Z,5.44
2023-05-08T05:44:39.100Z,5.47
2023-05-08T05:47:46.639Z,5.29
2023-05-08T05:50:50.533Z,5.17
2023-05-08T05:53:54.161Z,5.83
2023-05-08T05:57:00.125Z,5.42
2023-05-08T06:00:04.158Z,5.39
2023-05-08T06:03:17.926Z,5.68
2023-05-08T06:06:21.611Z,5.42
2023-05-08T06:09:25.166Z,5.82
2023-05-08T06:12:29.989Z,5.63
2023-05-08T06:15:35.457Z,5.58
2023-05-08T06:18:40.422Z,5.88
2023-05-08T06:21:44.003Z,5.94
2023-05-08T06:24:47.587Z,6.09
2023-05-08T06:27:52.508Z,5.89
2023-05-08T06:30:56.442Z,5.72
2023-05-08T06:34:00.125Z,6.10
2023-05-08T06:37:03.878Z,5.97
2023-05-08T06:40:12.062Z,6.03
2023-05-08T06:43:17.857Z,6.06
2023-05-08T06:46:21.891Z,6.39
2023-05-08T06:49:25.470Z,6.21
2023-05-08T06:52:29.073Z,6.06
2023-05-08T06:55:32.912Z,6.48
2023-05-08T06:58:37.986Z,6.36
2023-05-08T07:01:41.993Z,6.61
2023-05-08T07:04:45.577Z,7.27
2023-05-08T07:07:49.138Z,6.84
2023-05-08T07:10:53.387Z,7.17
2023-05-08T07:13:58.253Z,7.07
2023-05-08T07:17:07.008Z,6.96
2023-05-08T07:20:11.153Z,7.03
2023-05-08T07:23:14.812Z,6.57
2023-05-08T07:26:18.326Z,6.81
2023-05-08T07:29:23.352Z,6.93
2023-05-08T07:32:27.007Z,7.61
2023-05-08T07:35:30.721Z,7.63
2023-05-08T07:38:37.748Z,7.56
2023-05-08T07:41:43.317Z,7.73
2023-05-08T07:44:54.718Z,8.23
2023-05-08T07:48:00.198Z,8.89
2023-05-08T07:51:03.960Z,8.30
2023-05-08T07:54:08.023Z,8.18
2023-05-08T07:57:11.862Z,8.48
2023-05-08T08:00:17.982Z,8.49
2023-05-08T08:03:21.606Z,8.54
2023-05-08T08:06:25.255Z,8.31
2023-05-08T08:09:28.825Z,8.52
2023-05-08T08:12:32.641Z,8.84
2023-05-08T08:15:37.703Z,8.01
2023-05-08T08:18:41.441Z,8.42
2023-05-08T08:21:45.286Z,8.66
2023-05-08T08:24:52.411Z,8.47
2023-05-08T08:27:59.740Z,9.04
2023-05-08T08:31:05.601Z,8.73
2023-05-08T08:34:09.184Z,8.69
2023-05-08T08:37:15.409Z,8.83
2023-05-08T08:40:19.297Z,9.33
2023-05-08T08:43:22.883Z,9.73
2023-05-08T08:46:29.500Z,9.52
2023-05-08T08:49:36.192Z,9.47
2023-05-08T08:52:42.761Z,8.84
2023-05-08T08:55:49.811Z,9.29
2023-05-08T08:58:59.395Z,9.24
2023-05-08T09:02:13.178Z,9.64
2023-05-08T09:05:17.158Z,9.56
2023-05-08T09:08:20.846Z,9.41
2023-05-08T09:11:24.560Z,9.91
2023-05-08T09:14:28.169Z,10.39
2023-05-08T09:17:33.084Z,10.64
2023-05-08T09:20:37.248Z,10.34
2023-05-08T09:23:58.686Z,10.41
2023-05-08T09:27:02.169Z,11.10
2023-05-08T09:30:08.339Z,10.38
2023-05-08T09:33:13.629Z,10.89
2023-05-08T09:36:28.736Z,11.26
2023-05-08T09:39:32.367Z,10.53
2023-05-08T09:42:39.533Z,11.02
2023-05-08T09:45:43.160Z,11.32
2023-05-08T09:48:48.647Z,11.08
2023-05-08T09:51:56.581Z,11.48
2023-05-08T09:55:00.708Z,11.29
2023-05-08T09:58:04.698Z,12.45
2023-05-08T10:01:08.948Z,10.78
2023-05-08T10:04:13.828Z,10.82
2023-05-08T10:07:17.274Z,11.60
2023-05-08T10:10:26.280Z,11.97
2023-05-08T10:13:30.125Z,11.96
2023-05-08T10:16:41.525Z,12.27
2023-05-08T10:19:49.845Z,12.55
2023-05-08T10:22:55.078Z,11.87
2023-05-08T10:26:09.092Z,12.05
2023-05-08T10:29:20.271Z,12.36
2023-05-08T10:32:25.642Z,12.75
2023-05-08T10:35:31.660Z,12.61
2023-05-08T10:38:36.320Z,13.02
2023-05-08T10:41:40.323Z,12.80
2023-05-08T10:44:43.842Z,12.43
2023-05-08T10:48:00.987Z,13.21
2023-05-08T10:51:11.514Z,12.63
2023-05-08T10:54:21.882Z,12.33
2023-05-08T10:57:25.568Z,12.47
2023-05-08T11:00:35.351Z,13.14
2023-05-08T11:03:41.601Z,12.56
2023-05-08T11:06:53.186Z,13.21
2023-05-08T11:10:08.669Z,13.59
2023-05-08T11:13:13.758Z,14.18
2023-05-08T11:16:17.468Z,14.48
2023-05-08T11:19:22.310Z,13.30
2023-05-08T11:22:30.388Z,13.55
2023-05-08T11:25:43.931Z,14.99
2023-05-08T11:28:58.176Z,14.57
2023-05-08T11:32:01.624Z,13.64
2023-05-08T11:35:11.362Z,13.71
2023-05-08T11:38:22.704Z,13.91
2023-05-08T11:41:26.191Z,14.20
2023-05-08T11:44:30.796Z,14.77
2023-05-08T11:47:39.972Z,14.20
2023-05-08T11:50:43.900Z,15.23
2023-05-08T11:53:48.949Z,15.26
2023-05-08T11:56:57.114Z,14.51
2023-05-08T12:00:05.219Z,14.51
2023-05-08T12:03:14.554Z,14.39
2023-05-08T12:06:20.360Z,14.72
2023-05-08T12:09:25.505Z,14.17
2023-05-08T12:12:38.353Z,14.24
2023-05-08T12:15:42.122Z,15.21
2023-05-08T12:18:45.779Z,15.27
2023-05-08T12:21:50.233Z,14.45
2023-05-08T12:24:55.622Z,14.88
2023-05-08T12:28:00.606Z,14.52
2023-05-08T12:31:04.662Z,15.17
2023-05-08T12:34:10.233Z,14.36
2023-05-08T12:37:24.242Z,15.12
2023-05-08T12:40:31.546Z,14.85
2023-05-08T12:43:36.314Z,14.79
2023-05-08T12:46:48.491Z,13.74
2023-05-08T12:49:52.932Z,13.74
2023-05-08T12:52:56.309Z,15.06
2023-05-08T12:56:04.193Z,15.42
2023-05-08T12:59:07.584Z,14.82
2023-05-08T13:02:15.895Z,15.13
2023-05-08T13:05:21.608Z,15.28
2023-05-08T13:08:33.430Z,15.37
2023-05-08T13:11:39.420Z,15.60
2023-05-08T13:14:42.943Z,15.67
2023-05-08T13:17:46.410Z,14.73
2023-05-08T13:20:49.816Z,14.62
2023-05-08T13:23:53.300Z,15.32
2023-05-08T13:26:58.106Z,15.08
2023-05-08T13:30:01.433Z,15.24
2023-05-08T13:33:05.761Z,15.37
2023-05-08T13:36:10.089Z,15.50
2023-05-08T13:39:13.459Z,15.59
2023-05-08T13:42:18.557Z,15.80
2023-05-08T13:45:22.382Z,15.62
2023-05-08T13:48:26.089Z,16.38
2023-05-08T13:51:29.645Z,16.18
2023-05-08T13:54:32.984Z,15.74
2023-05-08T13:57:38.840Z,15.19
2023-05-08T14:00:42.562Z,14.83
2023-05-08T14:03:46.095Z,14.89
2023-05-08T14:06:49.533Z,15.17
2023-05-08T14:09:54.440Z,16.20
2023-05-08T14:12:59.641Z,15.09
2023-05-08T14:16:05.884Z,15.30
2023-05-08T14:19:09.445Z,15.93
2023-05-08T14:22:13.133Z,16.18
2023-05-08T14:25:16.921Z,16.06
2023-05-08T14:28:21.745Z,15.63
2023-05-08T14:31:25.460Z,14.77
2023-05-08T14:34:29.164Z,15.34
2023-05-08T14:37:32.900Z,15.51
2023-05-08T14:40:36.453Z,15.10
2023-05-08T14:43:44.060Z,15.31
2023-05-08T14:46:47.678Z,15.52
2023-05-08T14:49:51.191Z,15.48
2023-05-08T14:52:54.867Z,15.31
2023-05-08T14:56:00.121Z,15.42
2023-05-08T14:59:05.431Z,15.19
2023-05-08T15:02:09.264Z,15.88
2023-05-08T15:05:19.023Z,14.61
2023-05-08T15:08:23.320Z,13.67
2023-05-08T15:11:27.192Z,13.43
2023-05-08T15:14:32.600Z,14.66
2023-05-08T15:17:36.699Z,14.76
2023-05-08T15:20:40.351Z,15.03
2023-05-08T15:23:44.198Z,15.75
2023-05-08T15:26:47.585Z,14.93
2023-05-08T15:29:53.060Z,15.27
2023-05-08T15:32:57.751Z,15.80
2023-05-08T15:36:01.248Z,14.13
2023-05-08T15:39:05.063Z,14.92
2023-05-08T15:42:08.784Z,14.34
2023-05-08T15:45:13.918Z,14.12
2023-05-08T15:48:17.696Z,14.47
2023-05-08T15:51:21.432Z,13.47
2023-05-08T15:54:25.202Z,13.73
2023-05-08T15:57:28.615Z,12.99
2023-05-08T16:00:44.102Z,13.18
2023-05-08T16:03:49.335Z,13.61
2023-05-08T16:06:52.821Z,13.87
2023-05-08T16:09:56.568Z,13.92
2023-05-08T16:13:00.593Z,14.43
2023-05-08T16:16:07.248Z,14.05
2023-05-08T16:19:13.420Z,13.78
2023-05-08T16:22:16.803Z,13.33
2023-05-08T16:25:20.450Z,12.73
2023-05-08T16:28:23.825Z,12.60
2023-05-08T16:31:28.710Z,12.31
2023-05-08T16:34:32.795Z,12.27
2023-05-08T16:37:37.535Z,12.71
2023-05-08T16:40:41.966Z,13.12
2023-05-08T16:43:46.014Z,13.17
2023-05-08T16:46:51.518Z,13.15
2023-05-08T16:49:55.448Z,13.05
2023-05-08T16:52:59.146Z,12.87
2023-05-08T16:56:02.593Z,12.50
2023-05-08T16:59:07.158Z,12.49
2023-05-08T17:02:12.542Z,12.38
2023-05-08T17:05:16.212Z,12.36
2023-05-08T17:08:19.711Z,12.26
2023-05-08T17:11:23.217Z,12.09
2023-05-08T17:14:26.723Z,11.91
2023-05-08T17:17:31.589Z,11.61
2023-05-08T17:20:40.846Z,11.63
2023-05-08T17:23:45.791Z,11.44
2023-05-08T17:26:49.307Z,11.54
2023-05-08T17:29:52.696Z,11.57
2023-05-08T17:32:57.613Z,11.38
2023-05-08T17:36:02.377Z,11.39
2023-05-08T17:39:06.295Z,11.44
2023-05-08T17:42:09.763Z,11.47
2023-05-08T17:45:13.379Z,11.59
2023-05-08T17:48:18.181Z,11.35
2023-05-08T17:51:21.743Z,11.37
2023-05-08T17:54:25.358Z,11.04
2023-05-08T17:57:28.809Z,11.17
2023-05-08T18:00:32.575Z,11.05
2023-05-08T18:03:37.477Z,10.87
2023-05-08T18:06:40.927Z,10.94
2023-05-08T18:09:44.302Z,10.73
2023-05-08T18:12:47.678Z,10.73
2023-05-08T18:15:51.613Z,10.44
2023-05-08T18:18:56.950Z,10.37
2023-05-08T18:22:00.735Z,10.32
2023-05-08T18:25:04.571Z,10.23
2023-05-08T18:28:08.183Z,10.05
2023-05-08T18:31:12.369Z,9.66
2023-05-08T18:34:17.443Z,9.51
2023-05-08T18:37:21.004Z,9.28
2023-05-08T18:40:24.923Z,9.08
2023-05-08T18:43:28.305Z,8.99
2023-05-08T18:46:31.717Z,8.84
2023-05-08T18:49:38.175Z,8.72
2023-05-08T18:52:41.552Z,8.74
2023-05-08T18:55:45.245Z,8.60
2023-05-08T18:58:52.256Z,8.37
2023-05-08T19:01:59.270Z,8.31
2023-05-08T19:05:04.525Z,8.19
2023-05-08T19:08:08.838Z,8.06
2023-05-08T19:11:13.382Z,7.84
2023-05-08T19:14:17.428Z,8.00
2023-05-08T19:17:21.065Z,7.62
2023-05-08T19:20:26.238Z,7.32
2023-05-08T19:23:29.828Z,7.32
2023-05-08T19:26:33.561Z,7.15
2023-05-08T19:29:37.306Z,6.88
2023-05-08T19:32:40.957Z,6.80
2023-05-08T19:35:48.162Z,6.64
2023-05-08T19:38:51.749Z,6.40
2023-05-08T19:41:55.439Z,6.50
2023-05-08T19:44:59.184Z,6.41
2023-05-08T19:48:04.616Z,6.21
2023-05-08T19:51:16.436Z,6.20
2023-05-08T19:54:20.133Z,6.05
2023-05-08T19:57:23.606Z,6.21
2023-05-08T20:00:29.170Z,6.35
2023-05-08T20:03:32.927Z,6.45
2023-05-08T20:06:39.384Z,6.27
2023-05-08T20:09:43.274Z,6.18
2023-05-08T20:12:47.128Z,6.30
2023-05-08T20:15:50.758Z,6.23
2023-05-08T20:18:54.699Z,6.00
2023-05-08T20:21:59.759Z,5.84
2023-05-08T20:25:04.874Z,5.90
2023-05-08T20:28:08.979Z,5.38
2023-05-08T20:31:14.933Z,5.41
2023-05-08T20:34:22.106Z,5.24
2023-05-08T20:37:27.161Z,5.32
2023-05-08T20:40:30.845Z,5.40
2023-05-08T20:43:35.421Z,5.46
2023-05-08T20:46:40.326Z,5.37
2023-05-08T20:49:43.849Z,5.08
2023-05-08T20:52:48.671Z,5.06
2023-05-08T20:55:53.404Z,5.13
2023-05-08T20:58:57.129Z,5.04
2023-05-08T21:02:00.789Z,4.82
2023-05-08T21:05:04.501Z,5.07
2023-05-08T21:08:09.519Z,5.20
2023-05-08T21:11:13.809Z,5.04
2023-05-08T21:14:17.334Z,4.90
2023-05-08T21:17:20.729Z,4.69
2023-05-08T21:20:24.444Z,4.57
2023-05-08T21:23:30.983Z,4.74
2023-05-08T21:26:35.205Z,4.49
2023-05-08T21:29:38.653Z,4.43
2023-05-08T21:32:42.946Z,4.42
2023-05-08T21:35:47.622Z,4.34
2023-05-08T21:38:53.098Z,4.12
2023-05-08T21:41:56.438Z,4.07
2023-05-08T21:45:00.503Z,4.45
2023-05-08T21:48:04.495Z,4.49
2023-05-08T21:51:08.062Z,4.10
2023-05-08T21:54:13.026Z,4.33
2023-05-08T21:57:17.142Z,4.13
2023-05-08T22:00:21.370Z,4.20
2023-05-08T22:03:25.106Z,4.23
2023-05-08T22:06:28.814Z,4.36
2023-05-08T22:09:35.826Z,4.20
2023-05-08T22:12:39.443Z,4.26
2023-05-08T22:15:43.664Z,4.47
2023-05-08T22:18:47.342Z,4.64
2023-05-08T22:21:50.825Z,4.81
2023-05-08T22:24:55.592Z,4.68
2023-05-08T22:28:01.433Z,4.41
2023-05-08T22:31:05.180Z,4.37
2023-05-08T22:34:09.059Z,4.28
2023-05-08T22:37:12.593Z,4.25
2023-05-08T22:40:18.931Z,4.13
2023-05-08T22:43:23.318Z,4.04
2023-05-08T22:46:27.016Z,3.88
2023-05-08T22:49:31.312Z,3.80
2023-05-08T22:52:34.770Z,3.61
2023-05-08T22:55:39.802Z,3.62
2023-05-08T22:58:43.740Z,3.67
2023-05-08T23:01:47.437Z,3.80
2023-05-08T23:04:51.071Z,3.62
2023-05-08T23:07:54.662Z,3.68
2023-05-08T23:10:59.762Z,3.29
2023-05-08T23:14:04.035Z,3.31
2023-05-08T23:17:07.541Z,3.18
2023-05-08T23:20:11.817Z,3.25
2023-05-08T23:23:15.384Z,3.16
2023-05-08T23:26:20.302Z,3.37
2023-05-08T23:29:23.650Z,3.32
2023-05-08T23:32:27.302Z,3.22
2023-05-08T23:35:31.007Z,3.19
2023-05-08T23:38:34.397Z,3.02
2023-05-08T23:41:39.539Z,2.96
2023-05-08T23:44:43.053Z,3.21
2023-05-08T23:47:46.632Z,3.12
2023-05-08T23:50:50.477Z,2.95
2023-05-08T23:53:56.805Z,3.09
2023-05-08T23:57:08.230Z,3.04
